sensor_id;sensor_type;location;lat;lon;timestamp;pressure;altitude;pressure_sealevel;temperature;humidity
56420;BME280;42323;52.170;7.538;2022-12-07T00:01:09;101199.72;;;4.11;96.24
56420;BME280;42323;52.170;7.538;2022-12-07T00:03:37;101187.13;;;4.07;96.80
56420;BME280;42323;52.170;7.538;2022-12-07T00:06:05;101211.16;;;4.20;96.51
56420;BME280;42323;52.170;7.538;2022-12-07T00:08:33;101207.38;;;4.13;96.16
56420;BME280;42323;52.170;7.538;2022-12-07T00:11:09;101198.09;;;3.99;96.91
56420;BME280;42323;52.170;7.538;2022-12-07T00:13:36;101221.28;;;4.12;97.00
56420;BME280;42323;52.170;7.538;2022-12-07T00:16:08;101212.56;;;4.13;96.64
56420;BME280;42323;52.170;7.538;2022-12-07T00:18:36;101201.88;;;4.06;96.89
56420;BME280;42323;52.170;7.538;2022-12-07T00:21:11;101203.97;;;4.01;97.06
56420;BME280;42323;52.170;7.538;2022-12-07T00:23:39;101198.31;;;3.96;96.91
56420;BME280;42323;52.170;7.538;2022-12-07T00:26:12;101204.00;;;3.90;97.06
56420;BME280;42323;52.170;7.538;2022-12-07T00:28:39;101204.34;;;3.85;97.27
56420;BME280;42323;52.170;7.538;2022-12-07T00:31:09;101199.97;;;3.86;96.98
56420;BME280;42323;52.170;7.538;2022-12-07T00:33:37;101184.78;;;3.81;97.22
56420;BME280;42323;52.170;7.538;2022-12-07T00:36:08;101193.97;;;3.85;97.41
56420;BME280;42323;52.170;7.538;2022-12-07T00:38:37;101199.63;;;3.79;97.47
56420;BME280;42323;52.170;7.538;2022-12-07T00:41:12;101189.16;;;3.81;97.37
56420;BME280;42323;52.170;7.538;2022-12-07T00:43:40;101194.91;;;3.84;96.83
56420;BME280;42323;52.170;7.538;2022-12-07T00:46:08;101200.44;;;3.80;97.07
56420;BME280;42323;52.170;7.538;2022-12-07T00:48:35;101159.81;;;3.58;96.97
56420;BME280;42323;52.170;7.538;2022-12-07T00:51:02;101199.75;;;3.77;97.55
56420;BME280;42323;52.170;7.538;2022-12-07T00:53:30;101193.38;;;3.70;97.59
56420;BME280;42323;52.170;7.538;2022-12-07T00:56:13;101195.97;;;3.70;97.00
56420;BME280;42323;52.170;7.538;2022-12-07T00:58:41;101178.28;;;3.53;96.93
56420;BME280;42323;52.170;7.538;2022-12-07T01:01:08;101194.31;;;3.58;97.04
56420;BME280;42323;52.170;7.538;2022-12-07T01:03:36;101186.31;;;3.50;97.19
56420;BME280;42323;52.170;7.538;2022-12-07T01:06:04;101181.34;;;3.36;97.00
56420;BME280;42323;52.170;7.538;2022-12-07T01:08:32;101190.53;;;3.51;97.18
56420;BME280;42323;52.170;7.538;2022-12-07T01:11:06;101188.31;;;3.46;97.32
56420;BME280;42323;52.170;7.538;2022-12-07T01:13:34;101189.69;;;3.39;97.03
56420;BME280;42323;52.170;7.538;2022-12-07T01:16:03;101203.81;;;3.35;97.50
56420;BME280;42323;52.170;7.538;2022-12-07T01:18:32;101201.53;;;3.19;96.95
56420;BME280;42323;52.170;7.538;2022-12-07T01:21:09;101188.19;;;3.01;96.67
56420;BME280;42323;52.170;7.538;2022-12-07T01:23:37;101183.47;;;2.95;96.92
56420;BME280;42323;52.170;7.538;2022-12-07T01:26:07;101190.53;;;2.93;97.18
56420;BME280;42323;52.170;7.538;2022-12-07T01:28:36;101189.34;;;2.86;96.88
56420;BME280;42323;52.170;7.538;2022-12-07T01:31:09;101188.72;;;2.83;96.84
56420;BME280;42323;52.170;7.538;2022-12-07T01:33:46;101195.19;;;2.77;97.26
56420;BME280;42323;52.170;7.538;2022-12-07T01:36:16;101187.97;;;2.69;97.46
56420;BME280;42323;52.170;7.538;2022-12-07T01:38:44;101187.16;;;2.69;97.32
56420;BME280;42323;52.170;7.538;2022-12-07T01:41:12;101192.75;;;2.63;97.66
56420;BME280;42323;52.170;7.538;2022-12-07T01:49:23;101198.31;;;2.45;97.22
56420;BME280;42323;52.170;7.538;2022-12-07T01:51:57;101192.66;;;2.40;97.27
56420;BME280;42323;52.170;7.538;2022-12-07T01:54:25;101190.28;;;2.37;97.60
56420;BME280;42323;52.170;7.538;2022-12-07T01:56:53;101194.34;;;2.29;97.04
56420;BME280;42323;52.170;7.538;2022-12-07T01:59:23;101194.28;;;2.17;97.55
56420;BME280;42323;52.170;7.538;2022-12-07T02:01:53;101184.59;;;2.08;97.16
56420;BME280;42323;52.170;7.538;2022-12-07T02:04:21;101201.41;;;2.14;97.17
56420;BME280;42323;52.170;7.538;2022-12-07T02:06:50;101181.81;;;1.98;97.46
56420;BME280;42323;52.170;7.538;2022-12-07T02:09:17;101178.22;;;1.88;97.85
56420;BME280;42323;52.170;7.538;2022-12-07T02:11:44;101190.00;;;1.92;97.33
56420;BME280;42323;52.170;7.538;2022-12-07T02:14:10;101193.81;;;1.99;97.73
56420;BME280;42323;52.170;7.538;2022-12-07T02:16:48;101200.50;;;2.02;97.55
56420;BME280;42323;52.170;7.538;2022-12-07T02:30:06;101184.34;;;1.74;97.84
56420;BME280;42323;52.170;7.538;2022-12-07T02:35:23;101185.78;;;1.66;97.52
56420;BME280;42323;52.170;7.538;2022-12-07T02:40:28;101186.31;;;1.58;97.82
56420;BME280;42323;52.170;7.538;2022-12-07T02:43:06;101174.84;;;1.49;97.48
56420;BME280;42323;52.170;7.538;2022-12-07T02:45:37;101187.56;;;1.53;98.01
56420;BME280;42323;52.170;7.538;2022-12-07T02:48:07;101201.28;;;1.53;97.94
56420;BME280;42323;52.170;7.538;2022-12-07T02:50:34;101176.81;;;1.46;97.99
56420;BME280;42323;52.170;7.538;2022-12-07T02:53:01;101177.13;;;1.41;98.13
56420;BME280;42323;52.170;7.538;2022-12-07T02:55:34;101179.38;;;1.46;97.82
56420;BME280;42323;52.170;7.538;2022-12-07T02:58:31;101163.91;;;1.33;97.46
56420;BME280;42323;52.170;7.538;2022-12-07T03:01:32;101177.03;;;1.43;97.89
56420;BME280;42323;52.170;7.538;2022-12-07T03:04:59;101189.00;;;1.44;97.59
56420;BME280;42323;52.170;7.538;2022-12-07T03:15:27;101172.56;;;1.45;98.07
56420;BME280;42323;52.170;7.538;2022-12-07T03:17:56;101175.66;;;1.50;98.64
56420;BME280;42323;52.170;7.538;2022-12-07T03:20:25;101165.78;;;1.44;98.12
56420;BME280;42323;52.170;7.538;2022-12-07T03:22:54;101167.41;;;1.45;98.10
56420;BME280;42323;52.170;7.538;2022-12-07T03:25:21;101173.59;;;1.42;97.71
56420;BME280;42323;52.170;7.538;2022-12-07T03:27:55;101176.91;;;1.44;98.62
56420;BME280;42323;52.170;7.538;2022-12-07T03:30:28;101161.44;;;1.44;98.41
56420;BME280;42323;52.170;7.538;2022-12-07T03:33:24;101177.94;;;1.55;97.81
56420;BME280;42323;52.170;7.538;2022-12-07T03:36:10;101135.72;;;1.30;98.26
56420;BME280;42323;52.170;7.538;2022-12-07T03:38:53;101168.34;;;1.44;98.07
56420;BME280;42323;52.170;7.538;2022-12-07T03:41:27;101160.72;;;1.30;98.38
56420;BME280;42323;52.170;7.538;2022-12-07T03:43:55;101157.09;;;1.32;97.66
56420;BME280;42323;52.170;7.538;2022-12-07T03:49:11;101156.06;;;1.22;98.01
56420;BME280;42323;52.170;7.538;2022-12-07T03:52:54;101159.28;;;1.25;98.32
56420;BME280;42323;52.170;7.538;2022-12-07T03:57:26;101167.09;;;1.24;98.15
56420;BME280;42323;52.170;7.538;2022-12-07T03:59:56;101152.44;;;1.12;98.14
56420;BME280;42323;52.170;7.538;2022-12-07T04:02:25;101171.75;;;1.32;97.73
56420;BME280;42323;52.170;7.538;2022-12-07T04:04:55;101157.50;;;1.26;98.15
56420;BME280;42323;52.170;7.538;2022-12-07T04:07:22;101152.13;;;1.29;98.11
56420;BME280;42323;52.170;7.538;2022-12-07T04:09:48;101142.41;;;1.33;98.27
56420;BME280;42323;52.170;7.538;2022-12-07T04:12:15;101124.97;;;1.23;98.10
56420;BME280;42323;52.170;7.538;2022-12-07T04:14:42;101140.34;;;1.38;98.32
56420;BME280;42323;52.170;7.538;2022-12-07T04:17:09;101137.78;;;1.38;98.13
56420;BME280;42323;52.170;7.538;2022-12-07T04:19:36;101143.47;;;1.43;98.69
56420;BME280;42323;52.170;7.538;2022-12-07T04:22:03;101140.59;;;1.35;98.26
56420;BME280;42323;52.170;7.538;2022-12-07T04:24:31;101151.09;;;1.44;98.37
56420;BME280;42323;52.170;7.538;2022-12-07T04:26:58;101163.38;;;1.54;98.26
56420;BME280;42323;52.170;7.538;2022-12-07T04:29:25;101165.25;;;1.64;98.79
56420;BME280;42323;52.170;7.538;2022-12-07T04:31:52;101163.19;;;1.57;98.34
56420;BME280;42323;52.170;7.538;2022-12-07T04:34:20;101166.88;;;1.65;98.30
56420;BME280;42323;52.170;7.538;2022-12-07T04:36:47;101167.19;;;1.73;98.33
56420;BME280;42323;52.170;7.538;2022-12-07T04:39:35;101169.03;;;1.71;98.22
56420;BME280;42323;52.170;7.538;2022-12-07T04:42:02;101168.00;;;1.74;98.25
56420;BME280;42323;52.170;7.538;2022-12-07T04:44:29;101158.31;;;1.78;98.26
56420;BME280;42323;52.170;7.538;2022-12-07T04:46:57;101160.78;;;1.79;98.52
56420;BME280;42323;52.170;7.538;2022-12-07T04:49:24;101165.50;;;1.85;98.60
56420;BME280;42323;52.170;7.538;2022-12-07T04:51:51;101157.53;;;1.88;98.38
56420;BME280;42323;52.170;7.538;2022-12-07T04:54:18;101158.16;;;1.92;98.75
56420;BME280;42323;52.170;7.538;2022-12-07T04:56:45;101162.06;;;1.97;98.20
56420;BME280;42323;52.170;7.538;2022-12-07T04:59:12;101161.03;;;2.00;98.26
56420;BME280;42323;52.170;7.538;2022-12-07T05:01:40;101139.09;;;1.82;98.28
56420;BME280;42323;52.170;7.538;2022-12-07T05:04:07;101157.97;;;1.95;98.18
56420;BME280;42323;52.170;7.538;2022-12-07T05:06:35;101162.56;;;2.03;97.70
56420;BME280;42323;52.170;7.538;2022-12-07T05:09:03;101146.38;;;1.88;98.03
56420;BME280;42323;52.170;7.538;2022-12-07T05:11:30;101130.72;;;1.78;98.05
56420;BME280;42323;52.170;7.538;2022-12-07T05:14:12;101139.91;;;1.82;97.78
56420;BME280;42323;52.170;7.538;2022-12-07T05:16:40;101149.50;;;1.80;97.81
56420;BME280;42323;52.170;7.538;2022-12-07T05:19:08;101160.34;;;1.85;97.60
56420;BME280;42323;52.170;7.538;2022-12-07T05:21:36;101151.59;;;1.75;98.14
56420;BME280;42323;52.170;7.538;2022-12-07T05:24:03;101154.56;;;1.82;97.87
56420;BME280;42323;52.170;7.538;2022-12-07T05:26:30;101152.81;;;1.82;98.21
56420;BME280;42323;52.170;7.538;2022-12-07T05:28:57;101146.28;;;1.76;98.10
56420;BME280;42323;52.170;7.538;2022-12-07T05:31:26;101160.75;;;1.92;98.13
56420;BME280;42323;52.170;7.538;2022-12-07T05:33:54;101158.47;;;1.87;98.05
56420;BME280;42323;52.170;7.538;2022-12-07T05:36:22;101135.16;;;1.76;98.02
56420;BME280;42323;52.170;7.538;2022-12-07T05:38:51;101162.81;;;1.99;98.01
56420;BME280;42323;52.170;7.538;2022-12-07T05:41:19;101108.13;;;1.69;97.64
56420;BME280;42323;52.170;7.538;2022-12-07T05:44:05;101140.28;;;1.89;97.73
56420;BME280;42323;52.170;7.538;2022-12-07T05:46:32;101143.97;;;1.97;97.91
56420;BME280;42323;52.170;7.538;2022-12-07T05:48:59;101117.19;;;1.74;97.48
56420;BME280;42323;52.170;7.538;2022-12-07T05:51:26;101148.22;;;1.98;97.66
56420;BME280;42323;52.170;7.538;2022-12-07T05:53:53;101138.53;;;1.89;97.49
56420;BME280;42323;52.170;7.538;2022-12-07T05:56:20;101138.63;;;1.88;97.81
56420;BME280;42323;52.170;7.538;2022-12-07T05:58:47;101149.38;;;1.94;97.57
56420;BME280;42323;52.170;7.538;2022-12-07T06:01:32;101148.44;;;1.95;98.37
56420;BME280;42323;52.170;7.538;2022-12-07T06:03:59;101125.63;;;1.76;97.99
56420;BME280;42323;52.170;7.538;2022-12-07T06:06:26;101147.53;;;1.84;98.02
56420;BME280;42323;52.170;7.538;2022-12-07T06:08:52;101152.91;;;1.81;97.81
56420;BME280;42323;52.170;7.538;2022-12-07T06:11:19;101148.50;;;1.70;97.12
56420;BME280;42323;52.170;7.538;2022-12-07T06:14:05;101142.22;;;1.61;97.68
56420;BME280;42323;52.170;7.538;2022-12-07T06:16:31;101139.50;;;1.63;97.37
56420;BME280;42323;52.170;7.538;2022-12-07T06:18:58;101146.00;;;1.68;97.51
56420;BME280;42323;52.170;7.538;2022-12-07T06:21:25;101137.25;;;1.58;97.29
56420;BME280;42323;52.170;7.538;2022-12-07T06:23:53;101130.25;;;1.35;97.90
56420;BME280;42323;52.170;7.538;2022-12-07T06:26:19;101155.94;;;1.49;97.82
56420;BME280;42323;52.170;7.538;2022-12-07T06:28:46;101153.56;;;1.46;97.34
56420;BME280;42323;52.170;7.538;2022-12-07T06:31:13;101163.00;;;1.47;97.74
56420;BME280;42323;52.170;7.538;2022-12-07T06:33:41;101159.34;;;1.37;97.46
56420;BME280;42323;52.170;7.538;2022-12-07T06:36:09;101158.03;;;1.31;97.49
56420;BME280;42323;52.170;7.538;2022-12-07T06:38:36;101172.06;;;1.40;97.91
56420;BME280;42323;52.170;7.538;2022-12-07T06:41:03;101163.06;;;1.33;97.79
56420;BME280;42323;52.170;7.538;2022-12-07T06:43:30;101169.88;;;1.34;97.58
56420;BME280;42323;52.170;7.538;2022-12-07T06:45:56;101159.28;;;1.25;97.70
56420;BME280;42323;52.170;7.538;2022-12-07T06:48:23;101157.38;;;1.15;97.72
56420;BME280;42323;52.170;7.538;2022-12-07T06:50:50;101167.09;;;1.24;97.45
56420;BME280;42323;52.170;7.538;2022-12-07T06:53:21;101160.09;;;1.26;97.42
56420;BME280;42323;52.170;7.538;2022-12-07T06:55:48;101173.72;;;1.28;97.39
56420;BME280;42323;52.170;7.538;2022-12-07T06:58:15;101158.53;;;1.23;97.77
56420;BME280;42323;52.170;7.538;2022-12-07T07:00:42;101145.81;;;1.20;97.72
56420;BME280;42323;52.170;7.538;2022-12-07T07:03:09;101155.84;;;1.25;98.21
56420;BME280;42323;52.170;7.538;2022-12-07T07:05:35;101150.69;;;1.25;98.35
56420;BME280;42323;52.170;7.538;2022-12-07T07:08:02;101151.72;;;1.35;98.23
56420;BME280;42323;52.170;7.538;2022-12-07T07:10:49;101168.75;;;1.50;97.44
56420;BME280;42323;52.170;7.538;2022-12-07T07:13:16;101176.72;;;1.60;98.37
56420;BME280;42323;52.170;7.538;2022-12-07T07:15:43;101168.22;;;1.58;98.01
56420;BME280;42323;52.170;7.538;2022-12-07T07:18:09;101130.25;;;1.35;97.62
56420;BME280;42323;52.170;7.538;2022-12-07T07:20:37;101176.59;;;1.62;98.23
56420;BME280;42323;52.170;7.538;2022-12-07T07:23:04;101178.56;;;1.71;98.29
56420;BME280;42323;52.170;7.538;2022-12-07T07:25:31;101154.94;;;1.52;97.31
56420;BME280;42323;52.170;7.538;2022-12-07T07:27:58;101175.25;;;1.69;97.76
56420;BME280;42323;52.170;7.538;2022-12-07T07:30:25;101175.34;;;1.67;97.75
56420;BME280;42323;52.170;7.538;2022-12-07T07:32:57;101169.47;;;1.65;97.59
56420;BME280;42323;52.170;7.538;2022-12-07T07:35:25;101174.31;;;1.70;97.63
56420;BME280;42323;52.170;7.538;2022-12-07T07:37:52;101173.38;;;1.84;97.51
56420;BME280;42323;52.170;7.538;2022-12-07T07:40:18;101178.94;;;1.90;97.93
56420;BME280;42323;52.170;7.538;2022-12-07T07:42:52;101184.94;;;1.91;98.13
56420;BME280;42323;52.170;7.538;2022-12-07T07:45:21;101160.56;;;1.82;97.43
56420;BME280;42323;52.170;7.538;2022-12-07T07:47:48;101164.47;;;1.88;97.27
56420;BME280;42323;52.170;7.538;2022-12-07T07:50:16;101176.44;;;1.89;97.55
56420;BME280;42323;52.170;7.538;2022-12-07T07:52:43;101161.09;;;1.74;97.13
56420;BME280;42323;52.170;7.538;2022-12-07T07:55:11;101182.69;;;1.73;96.71
56420;BME280;42323;52.170;7.538;2022-12-07T07:57:39;101177.94;;;1.67;97.01
56420;BME280;42323;52.170;7.538;2022-12-07T08:00:08;101181.75;;;1.62;97.22
56420;BME280;42323;52.170;7.538;2022-12-07T08:02:36;101185.28;;;1.61;96.96
56420;BME280;42323;52.170;7.538;2022-12-07T08:05:03;101189.00;;;1.57;96.73
56420;BME280;42323;52.170;7.538;2022-12-07T08:07:30;101183.72;;;1.58;96.90
56420;BME280;42323;52.170;7.538;2022-12-07T08:09:57;101147.38;;;1.36;96.41
56420;BME280;42323;52.170;7.538;2022-12-07T08:12:23;101177.03;;;1.56;96.92
56420;BME280;42323;52.170;7.538;2022-12-07T08:14:50;101178.06;;;1.53;96.43
56420;BME280;42323;52.170;7.538;2022-12-07T08:17:17;101173.28;;;1.60;96.71
56420;BME280;42323;52.170;7.538;2022-12-07T08:19:43;101186.19;;;1.72;96.23
56420;BME280;42323;52.170;7.538;2022-12-07T08:22:10;101187.03;;;1.86;96.98
56420;BME280;42323;52.170;7.538;2022-12-07T08:24:37;101185.13;;;2.00;97.01
56420;BME280;42323;52.170;7.538;2022-12-07T08:27:03;101168.88;;;1.98;96.74
56420;BME280;42323;52.170;7.538;2022-12-07T08:29:30;101171.66;;;2.08;96.67
56420;BME280;42323;52.170;7.538;2022-12-07T08:31:57;101165.56;;;2.09;96.66
56420;BME280;42323;52.170;7.538;2022-12-07T08:34:24;101178.25;;;2.25;96.31
56420;BME280;42323;52.170;7.538;2022-12-07T08:36:50;101170.81;;;2.20;96.65
56420;BME280;42323;52.170;7.538;2022-12-07T08:39:17;101176.22;;;2.29;95.69
56420;BME280;42323;52.170;7.538;2022-12-07T08:41:59;101190.78;;;2.42;96.25
56420;BME280;42323;52.170;7.538;2022-12-07T08:44:26;101177.78;;;2.31;95.89
56420;BME280;42323;52.170;7.538;2022-12-07T08:46:57;101186.31;;;2.44;95.30
56420;BME280;42323;52.170;7.538;2022-12-07T08:49:28;101188.50;;;2.50;95.94
56420;BME280;42323;52.170;7.538;2022-12-07T08:51:58;101157.59;;;2.36;95.50
56420;BME280;42323;52.170;7.538;2022-12-07T08:54:25;101189.00;;;2.67;94.88
56420;BME280;42323;52.170;7.538;2022-12-07T08:56:54;101179.59;;;2.66;95.13
56420;BME280;42323;52.170;7.538;2022-12-07T08:59:26;101181.72;;;2.61;94.78
56420;BME280;42323;52.170;7.538;2022-12-07T09:01:53;101181.53;;;2.75;95.08
56420;BME280;42323;52.170;7.538;2022-12-07T09:04:20;101182.72;;;2.82;95.05
56420;BME280;42323;52.170;7.538;2022-12-07T09:06:47;101174.97;;;2.82;94.18
56420;BME280;42323;52.170;7.538;2022-12-07T09:09:14;101187.22;;;2.91;94.25
56420;BME280;42323;52.170;7.538;2022-12-07T09:11:41;101187.44;;;2.88;94.16
56420;BME280;42323;52.170;7.538;2022-12-07T09:14:08;101182.41;;;2.87;93.59
56420;BME280;42323;52.170;7.538;2022-12-07T09:16:35;101178.72;;;2.78;93.38
56420;BME280;42323;52.170;7.538;2022-12-07T09:19:02;101191.25;;;2.71;93.26
56420;BME280;42323;52.170;7.538;2022-12-07T09:21:28;101196.94;;;2.76;94.18
56420;BME280;42323;52.170;7.538;2022-12-07T09:23:55;101178.50;;;2.81;93.83
56420;BME280;42323;52.170;7.538;2022-12-07T09:26:22;101199.00;;;2.95;93.29
56420;BME280;42323;52.170;7.538;2022-12-07T09:28:49;101188.53;;;2.97;92.97
56420;BME280;42323;52.170;7.538;2022-12-07T09:31:15;101175.28;;;3.13;92.88
56420;BME280;42323;52.170;7.538;2022-12-07T09:33:56;101182.41;;;3.33;92.18
56420;BME280;42323;52.170;7.538;2022-12-07T09:36:24;101192.31;;;3.50;91.97
56420;BME280;42323;52.170;7.538;2022-12-07T09:38:51;101165.47;;;3.51;91.20
56420;BME280;42323;52.170;7.538;2022-12-07T09:41:19;101180.06;;;3.64;90.54
56420;BME280;42323;52.170;7.538;2022-12-07T09:43:46;101174.78;;;3.76;90.01
56420;BME280;42323;52.170;7.538;2022-12-07T09:46:16;101178.16;;;3.88;89.80
56420;BME280;42323;52.170;7.538;2022-12-07T09:48:45;101173.34;;;3.84;90.82
56420;BME280;42323;52.170;7.538;2022-12-07T09:51:19;101174.28;;;3.83;90.55
56420;BME280;42323;52.170;7.538;2022-12-07T09:53:51;101178.16;;;3.88;90.36
56420;BME280;42323;52.170;7.538;2022-12-07T09:56:19;101176.41;;;4.00;89.95
56420;BME280;42323;52.170;7.538;2022-12-07T09:58:46;101177.81;;;4.15;88.45
56420;BME280;42323;52.170;7.538;2022-12-07T10:01:19;101156.59;;;3.99;87.93
56420;BME280;42323;52.170;7.538;2022-12-07T10:03:52;101176.84;;;4.05;88.26
56420;BME280;42323;52.170;7.538;2022-12-07T10:06:19;101163.88;;;4.05;88.67
56420;BME280;42323;52.170;7.538;2022-12-07T10:08:47;101171.91;;;4.13;87.82
56420;BME280;42323;52.170;7.538;2022-12-07T10:11:14;101154.69;;;4.12;87.79
56420;BME280;42323;52.170;7.538;2022-12-07T10:13:47;101174.19;;;4.39;87.29
56420;BME280;42323;52.170;7.538;2022-12-07T10:18:51;101157.03;;;4.59;87.01
56420;BME280;42323;52.170;7.538;2022-12-07T10:21:25;101159.72;;;4.36;86.58
56420;BME280;42323;52.170;7.538;2022-12-07T10:24:02;101163.88;;;4.27;87.00
56420;BME280;42323;52.170;7.538;2022-12-07T10:29:12;101159.28;;;4.09;87.63
56420;BME280;42323;52.170;7.538;2022-12-07T10:31:40;101146.09;;;4.00;87.85
56420;BME280;42323;52.170;7.538;2022-12-07T10:34:24;101160.38;;;3.95;87.99
56420;BME280;42323;52.170;7.538;2022-12-07T10:36:52;101164.50;;;3.97;88.25
56420;BME280;42323;52.170;7.538;2022-12-07T10:39:22;101164.72;;;4.06;87.88
56420;BME280;42323;52.170;7.538;2022-12-07T10:41:59;101150.25;;;4.03;88.00
56420;BME280;42323;52.170;7.538;2022-12-07T10:44:30;101163.50;;;4.21;87.88
56420;BME280;42323;52.170;7.538;2022-12-07T10:47:11;101158.19;;;4.34;87.39
56420;BME280;42323;52.170;7.538;2022-12-07T11:06:20;101142.25;;;4.38;85.96
56420;BME280;42323;52.170;7.538;2022-12-07T11:14:56;101124.09;;;7.19;76.91
56420;BME280;42323;52.170;7.538;2022-12-07T11:17:36;101127.50;;;8.83;71.53
56420;BME280;42323;52.170;7.538;2022-12-07T11:33:47;101116.47;;;6.98;74.69
56420;BME280;42323;52.170;7.538;2022-12-07T11:39:04;101099.78;;;6.03;78.10
56420;BME280;42323;52.170;7.538;2022-12-07T11:41:39;101093.31;;;5.88;78.61
56420;BME280;42323;52.170;7.538;2022-12-07T11:44:31;101094.47;;;7.20;75.17
56420;BME280;42323;52.170;7.538;2022-12-07T11:47:22;101090.53;;;8.34;70.55
56420;BME280;42323;52.170;7.538;2022-12-07T11:55:39;101071.81;;;10.18;62.47
56420;BME280;42323;52.170;7.538;2022-12-07T12:09:13;101076.63;;;8.69;67.32
56420;BME280;42323;52.170;7.538;2022-12-07T12:15:34;101066.38;;;11.48;58.41
56420;BME280;42323;52.170;7.538;2022-12-07T12:20:53;101083.16;;;8.47;66.79
56420;BME280;42323;52.170;7.538;2022-12-07T12:26:01;101053.72;;;6.91;72.13
56420;BME280;42323;52.170;7.538;2022-12-07T12:28:53;101074.44;;;6.64;74.36
56420;BME280;42323;52.170;7.538;2022-12-07T12:34:03;101054.63;;;6.43;75.34
56420;BME280;42323;52.170;7.538;2022-12-07T12:39:16;101040.88;;;9.30;64.27
56420;BME280;42323;52.170;7.538;2022-12-07T12:47:04;101022.94;;;10.26;59.22
56420;BME280;42323;52.170;7.538;2022-12-07T12:54:35;101048.03;;;8.68;64.56
56420;BME280;42323;52.170;7.538;2022-12-07T12:57:18;101041.88;;;8.69;64.59
56420;BME280;42323;52.170;7.538;2022-12-07T13:02:54;101020.69;;;8.36;65.37
56420;BME280;42323;52.170;7.538;2022-12-07T13:05:23;101021.59;;;7.28;68.19
56420;BME280;42323;52.170;7.538;2022-12-07T13:21:00;101025.16;;;6.33;72.86
56420;BME280;42323;52.170;7.538;2022-12-07T13:23:32;101025.34;;;6.22;73.48
56420;BME280;42323;52.170;7.538;2022-12-07T13:28:38;101022.31;;;5.97;75.31
56420;BME280;42323;52.170;7.538;2022-12-07T13:34:00;101011.41;;;5.53;76.76
56420;BME280;42323;52.170;7.538;2022-12-07T13:36:48;100932.75;;;4.92;77.69
56420;BME280;42323;52.170;7.538;2022-12-07T13:41:42;100987.75;;;4.97;79.18
56420;BME280;42323;52.170;7.538;2022-12-07T13:44:12;101006.50;;;5.10;79.05
56420;BME280;42323;52.170;7.538;2022-12-07T13:47:16;100999.66;;;5.09;79.69
56420;BME280;42323;52.170;7.538;2022-12-07T13:50:23;100986.84;;;4.87;80.13
56420;BME280;42323;52.170;7.538;2022-12-07T13:52:55;100988.56;;;4.97;80.17
56420;BME280;42323;52.170;7.538;2022-12-07T13:55:22;100998.81;;;4.99;80.21
56420;BME280;42323;52.170;7.538;2022-12-07T13:57:52;100990.97;;;4.89;80.48
56420;BME280;42323;52.170;7.538;2022-12-07T14:00:27;100993.31;;;4.92;80.36
56420;BME280;42323;52.170;7.538;2022-12-07T14:05:29;100993.56;;;4.89;81.07
56420;BME280;42323;52.170;7.538;2022-12-07T14:07:59;100999.63;;;4.99;80.82
56420;BME280;42323;52.170;7.538;2022-12-07T14:10:28;100988.97;;;5.02;80.42
56420;BME280;42323;52.170;7.538;2022-12-07T14:12:57;100975.81;;;4.94;80.25
56420;BME280;42323;52.170;7.538;2022-12-07T14:15:28;100987.03;;;4.95;80.19
56420;BME280;42323;52.170;7.538;2022-12-07T14:17:56;101000.41;;;4.90;80.96
56420;BME280;42323;52.170;7.538;2022-12-07T14:20:34;100998.06;;;4.87;80.57
56420;BME280;42323;52.170;7.538;2022-12-07T14:23:01;100983.44;;;4.86;80.30
56420;BME280;42323;52.170;7.538;2022-12-07T14:25:50;100995.06;;;4.92;80.56
56420;BME280;42323;52.170;7.538;2022-12-07T14:28:32;100999.88;;;4.96;80.07
56420;BME280;42323;52.170;7.538;2022-12-07T14:31:01;100996.03;;;4.91;80.20
56420;BME280;42323;52.170;7.538;2022-12-07T14:33:28;100991.94;;;4.88;80.17
56420;BME280;42323;52.170;7.538;2022-12-07T14:35:56;100992.75;;;4.89;80.12
56420;BME280;42323;52.170;7.538;2022-12-07T14:38:25;100981.66;;;4.87;80.39
56420;BME280;42323;52.170;7.538;2022-12-07T14:40:53;100981.50;;;4.78;80.71
56420;BME280;42323;52.170;7.538;2022-12-07T14:43:20;100985.47;;;4.83;80.29
56420;BME280;42323;52.170;7.538;2022-12-07T14:45:47;100978.84;;;4.69;80.74
56420;BME280;42323;52.170;7.538;2022-12-07T14:48:15;100983.63;;;4.64;80.80
56420;BME280;42323;52.170;7.538;2022-12-07T14:51:02;100978.50;;;4.52;81.52
56420;BME280;42323;52.170;7.538;2022-12-07T14:53:51;100967.31;;;4.31;82.60
56420;BME280;42323;52.170;7.538;2022-12-07T14:56:23;100960.44;;;4.20;82.10
56420;BME280;42323;52.170;7.538;2022-12-07T14:58:50;100971.75;;;4.19;82.35
56420;BME280;42323;52.170;7.538;2022-12-07T15:01:17;100968.34;;;4.19;82.66
56420;BME280;42323;52.170;7.538;2022-12-07T15:03:44;100978.38;;;4.12;83.28
56420;BME280;42323;52.170;7.538;2022-12-07T15:06:14;100971.94;;;4.07;82.93
56420;BME280;42323;52.170;7.538;2022-12-07T15:08:42;100974.63;;;4.05;83.24
56420;BME280;42323;52.170;7.538;2022-12-07T15:11:18;100980.94;;;3.91;83.46
56420;BME280;42323;52.170;7.538;2022-12-07T15:13:44;100981.56;;;3.84;84.39
56420;BME280;42323;52.170;7.538;2022-12-07T15:16:30;100970.44;;;3.72;84.58
56420;BME280;42323;52.170;7.538;2022-12-07T15:19:20;100969.72;;;3.70;85.69
56420;BME280;42323;52.170;7.538;2022-12-07T15:21:55;100976.91;;;3.66;85.91
56420;BME280;42323;52.170;7.538;2022-12-07T15:24:22;100972.53;;;3.67;86.02
56420;BME280;42323;52.170;7.538;2022-12-07T15:26:50;100980.44;;;3.65;85.77
56420;BME280;42323;52.170;7.538;2022-12-07T15:29:17;100953.53;;;3.45;86.20
56420;BME280;42323;52.170;7.538;2022-12-07T15:31:50;100963.66;;;3.48;86.55
56420;BME280;42323;52.170;7.538;2022-12-07T15:34:27;100959.78;;;3.43;86.59
56420;BME280;42323;52.170;7.538;2022-12-07T15:37:04;100957.34;;;3.41;86.81
56420;BME280;42323;52.170;7.538;2022-12-07T15:39:31;100953.13;;;3.29;87.12
56420;BME280;42323;52.170;7.538;2022-12-07T15:41:57;100952.75;;;3.22;87.77
56420;BME280;42323;52.170;7.538;2022-12-07T15:44:24;100960.16;;;3.27;88.05
56420;BME280;42323;52.170;7.538;2022-12-07T15:47:10;100951.72;;;3.14;88.15